Time;durP1;ratioP1;P1;durP2;ratioP2;P2;SDS_P1;SDS_P2;PMS_P1;PMS_P2;Temp;Humidity;BMP_temperature;BMP_pressure;BME280_temperature;BME280_humidity;BME280_pressure;Samples;Min_cycle;Max_cycle;Signal;HPM_P1;HPM_P2
2022/09/23 00:01:34;;;;;;;14.48;7.93;;;;;;;;;;5134316;27;20576;-71
2022/09/23 00:04:01;;;;;;;8.55;7.43;;;;;;;;;;5134064;27;20048;-71
2022/09/23 00:06:27;;;;;;;13.90;8.20;;;;;;;;;;5134192;27;20550;-71
2022/09/23 00:08:53;;;;;;;10.70;7.72;;;;;;;;;;5134782;27;20059;-71
2022/09/23 00:11:21;;;;;;;11.27;7.28;;;;;;;;;;5155493;27;20051;-71
2022/09/23 00:13:48;;;;;;;13.07;8.10;;;;;;;;;;5146518;27;20109;-71
2022/09/23 00:16:17;;;;;;;12.65;8.52;;;;;;;;;;5134211;27;20504;-71
2022/09/23 00:18:44;;;;;;;10.98;7.88;;;;;;;;;;5133922;27;20055;-71
2022/09/23 00:21:12;;;;;;;9.77;8.23;;;;;;;;;;5134165;27;20048;-71
2022/09/23 00:23:39;;;;;;;15.07;8.55;;;;;;;;;;5138044;27;20096;-71
2022/09/23 00:26:06;;;;;;;12.38;7.88;;;;;;;;;;5136012;27;20058;-71
2022/09/23 00:28:33;;;;;;;9.50;8.05;;;;;;;;;;5115705;27;20051;-71
2022/09/23 00:31:03;;;;;;;10.93;7.85;;;;;;;;;;5125165;27;20055;-71
2022/09/23 00:33:29;;;;;;;11.00;8.20;;;;;;;;;;5116087;27;20098;-71
2022/09/23 00:36:05;;;;;;;9.68;7.57;;;;;;;;;;5123232;27;20052;-71
2022/09/23 00:38:32;;;;;;;11.13;7.95;;;;;;;;;;5134633;27;20048;-71
2022/09/23 00:40:59;;;;;;;9.15;8.25;;;;;;;;;;5121136;27;20545;-71
2022/09/23 00:43:40;;;;;;;13.50;7.97;;;;;;;;;;5130471;27;20906;-71
2022/09/23 00:46:10;;;;;;;9.07;8.00;;;;;;;;;;5132898;27;20058;-71
2022/09/23 00:48:39;;;;;;;8.63;7.35;;;;;;;;;;5133663;27;20112;-71
2022/09/23 00:51:07;;;;;;;11.75;8.02;;;;;;;;;;5142976;27;20070;-71
2022/09/23 00:53:33;;;;;;;12.13;8.45;;;;;;;;;;5154283;27;20454;-71
2022/09/23 00:56:02;;;;;;;13.68;8.18;;;;;;;;;;5132758;27;20051;-71
2022/09/23 00:58:30;;;;;;;13.73;8.07;;;;;;;;;;5133055;27;20051;-71
2022/09/23 01:01:00;;;;;;;10.82;8.05;;;;;;;;;;5133454;27;20051;-71
2022/09/23 01:03:26;;;;;;;9.63;7.90;;;;;;;;;;5137312;27;20121;-71
2022/09/23 01:05:53;;;;;;;14.80;8.02;;;;;;;;;;5133194;27;20097;-71
2022/09/23 01:08:20;;;;;;;11.45;8.25;;;;;;;;;;5132878;27;20059;-71
2022/09/23 01:11:13;;;;;;;10.13;7.82;;;;;;;;;;5140867;27;20074;-71
2022/09/23 01:13:45;;;;;;;10.40;7.90;;;;;;;;;;5132450;27;20059;-71
2022/09/23 01:16:31;;;;;;;12.00;7.65;;;;;;;;;;5131608;27;20485;-71
2022/09/23 01:19:15;;;;;;;14.95;8.07;;;;;;;;;;5149133;27;20143;-71
2022/09/23 01:21:42;;;;;;;11.23;7.95;;;;;;;;;;5132778;27;20496;-71
2022/09/23 01:24:21;;;;;;;11.85;7.65;;;;;;;;;;5135181;27;20149;-71
2022/09/23 01:26:47;;;;;;;10.88;8.70;;;;;;;;;;5132856;27;20470;-71
2022/09/23 01:29:27;;;;;;;9.40;7.38;;;;;;;;;;5131952;27;20096;-71
2022/09/23 01:32:02;;;;;;;12.88;8.38;;;;;;;;;;5135957;27;20052;-71
2022/09/23 01:34:46;;;;;;;10.05;7.85;;;;;;;;;;5132000;27;20561;-71
2022/09/23 01:37:16;;;;;;;9.75;8.15;;;;;;;;;;5115432;27;20056;-71
2022/09/23 01:39:48;;;;;;;12.38;8.20;;;;;;;;;;5132983;27;20101;-71
2022/09/23 01:42:16;;;;;;;10.18;7.97;;;;;;;;;;5128345;27;20056;-71
2022/09/23 01:44:50;;;;;;;10.38;8.02;;;;;;;;;;5132324;27;20051;-71
2022/09/23 01:47:20;;;;;;;11.15;8.50;;;;;;;;;;5132689;27;20052;-71
2022/09/23 01:49:56;;;;;;;11.50;8.10;;;;;;;;;;5133092;27;20055;-70
2022/09/23 01:52:25;;;;;;;16.40;9.82;;;;;;;;;;5133000;27;20538;-71
2022/09/23 01:54:56;;;;;;;9.75;8.35;;;;;;;;;;5132369;27;20162;-71
2022/09/23 01:57:30;;;;;;;10.27;7.88;;;;;;;;;;5132949;27;20179;-71
2022/09/23 02:00:04;;;;;;;10.25;7.88;;;;;;;;;;5130851;27;20063;-71
2022/09/23 02:02:43;;;;;;;14.18;8.73;;;;;;;;;;5130223;27;20059;-71
2022/09/23 02:05:13;;;;;;;10.48;8.15;;;;;;;;;;5131189;27;20048;-71
2022/09/23 02:07:42;;;;;;;12.52;7.75;;;;;;;;;;5117174;27;20051;-71
2022/09/23 02:10:14;;;;;;;10.00;8.15;;;;;;;;;;5132151;27;20545;-71
2022/09/23 02:12:42;;;;;;;11.30;7.93;;;;;;;;;;5131633;27;20931;-71
2022/09/23 02:15:11;;;;;;;10.90;7.40;;;;;;;;;;5133536;27;20124;-71
2022/09/23 02:17:41;;;;;;;10.60;7.97;;;;;;;;;;5135629;27;20059;-71
2022/09/23 02:20:09;;;;;;;10.13;8.40;;;;;;;;;;5135117;27;20059;-71
2022/09/23 02:22:39;;;;;;;9.38;7.63;;;;;;;;;;5135733;27;20052;-71
2022/09/23 02:25:07;;;;;;;10.93;7.82;;;;;;;;;;5135647;27;20052;-71
2022/09/23 02:27:36;;;;;;;12.90;9.05;;;;;;;;;;5135877;27;20052;-71
2022/09/23 02:30:08;;;;;;;10.25;8.20;;;;;;;;;;5135172;27;20047;-71
2022/09/23 02:32:58;;;;;;;10.57;7.72;;;;;;;;;;5130746;27;20558;-71
2022/09/23 02:35:31;;;;;;;9.60;7.85;;;;;;;;;;5131554;27;20105;-71
2022/09/23 02:38:06;;;;;;;9.70;8.40;;;;;;;;;;5135648;27;20063;-71
2022/09/23 02:40:51;;;;;;;9.15;7.60;;;;;;;;;;5134813;27;20505;-71
2022/09/23 02:43:18;;;;;;;9.80;7.57;;;;;;;;;;5136011;27;20063;-71
2022/09/23 02:45:45;;;;;;;11.40;7.55;;;;;;;;;;5135666;27;20055;-71
2022/09/23 02:48:23;;;;;;;14.20;8.35;;;;;;;;;;5123219;27;20056;-71
2022/09/23 02:50:49;;;;;;;10.65;7.60;;;;;;;;;;5133986;27;20055;-70
2022/09/23 02:53:16;;;;;;;11.90;7.35;;;;;;;;;;5120853;27;20496;-71
2022/09/23 02:55:42;;;;;;;8.85;7.95;;;;;;;;;;5135106;27;20501;-71
2022/09/23 02:58:10;;;;;;;10.25;7.78;;;;;;;;;;5134832;27;20440;-71
2022/09/23 03:00:36;;;;;;;7.43;6.70;;;;;;;;;;5118801;27;20051;-71
2022/09/23 03:03:10;;;;;;;13.40;8.43;;;;;;;;;;5141621;27;20131;-71
2022/09/23 03:05:39;;;;;;;10.52;7.30;;;;;;;;;;5144224;27;20055;-71
2022/09/23 03:08:05;;;;;;;9.65;7.63;;;;;;;;;;5124261;27;20048;-71
2022/09/23 03:10:34;;;;;;;11.68;7.78;;;;;;;;;;5134969;27;20055;-71
2022/09/23 03:13:13;;;;;;;8.68;7.30;;;;;;;;;;5135009;27;20493;-71
2022/09/23 03:15:39;;;;;;;8.68;7.65;;;;;;;;;;5135176;27;20063;-71
2022/09/23 03:18:16;;;;;;;9.05;7.72;;;;;;;;;;5152695;27;20055;-71
2022/09/23 03:20:43;;;;;;;9.18;8.18;;;;;;;;;;5125438;27;20055;-70
2022/09/23 03:23:13;;;;;;;9.75;7.78;;;;;;;;;;5120570;27;20908;-71
2022/09/23 03:25:43;;;;;;;14.05;7.90;;;;;;;;;;5134269;27;20052;-71
2022/09/23 03:28:10;;;;;;;8.70;7.80;;;;;;;;;;5135163;27;20196;-71
2022/09/23 03:30:38;;;;;;;9.07;7.40;;;;;;;;;;5135011;27;20056;-71
2022/09/23 03:33:06;;;;;;;8.82;7.60;;;;;;;;;;5135642;27;20909;-71
2022/09/23 03:36:48;;;;;;;9.70;8.13;;;;;;;;;;5133878;27;20113;-71
2022/09/23 03:38:23;;;;;;;11.35;8.80;;;;;;;;;;5134217;27;20051;-71
2022/09/23 03:40:50;;;;;;;14.18;9.45;;;;;;;;;;5130199;27;20048;-70
2022/09/23 03:43:17;;;;;;;10.00;8.70;;;;;;;;;;5143680;27;20058;-71
2022/09/23 03:45:44;;;;;;;10.90;7.95;;;;;;;;;;5126525;27;20048;-71
2022/09/23 03:48:13;;;;;;;9.98;8.85;;;;;;;;;;5131653;27;20138;-71
2022/09/23 03:50:40;;;;;;;11.80;8.48;;;;;;;;;;5113793;27;20063;-71
2022/09/23 03:53:06;;;;;;;12.27;8.63;;;;;;;;;;5122184;27;20112;-71
2022/09/23 03:55:33;;;;;;;11.15;8.27;;;;;;;;;;5134426;27;20052;-71
2022/09/23 03:58:01;;;;;;;19.00;11.48;;;;;;;;;;5134565;27;21019;-71
2022/09/23 04:00:27;;;;;;;13.93;8.32;;;;;;;;;;5151059;27;20058;-71
2022/09/23 04:02:53;;;;;;;11.23;9.05;;;;;;;;;;5134840;27;20187;-70
2022/09/23 04:05:20;;;;;;;12.90;8.15;;;;;;;;;;5124931;27;20056;-71
2022/09/23 04:07:47;;;;;;;15.77;9.90;;;;;;;;;;5118273;27;20048;-71
2022/09/23 04:10:13;;;;;;;12.25;8.75;;;;;;;;;;5133869;27;20056;-70
2022/09/23 04:12:39;;;;;;;10.82;9.15;;;;;;;;;;5134499;27;20063;-71
2022/09/23 04:15:06;;;;;;;13.07;8.98;;;;;;;;;;5134789;27;20617;-71
2022/09/23 04:17:32;;;;;;;10.95;9.38;;;;;;;;;;5133841;27;20067;-70
2022/09/23 04:19:58;;;;;;;9.73;8.60;;;;;;;;;;5133949;27;20052;-71
2022/09/23 04:22:25;;;;;;;10.10;8.52;;;;;;;;;;5134114;27;20055;-70
2022/09/23 04:24:51;;;;;;;11.35;8.45;;;;;;;;;;5120412;27;20052;-71
2022/09/23 04:27:17;;;;;;;13.07;8.85;;;;;;;;;;5130786;27;20092;-70
2022/09/23 04:29:43;;;;;;;9.63;8.68;;;;;;;;;;5133931;27;20843;-71
2022/09/23 04:32:10;;;;;;;12.85;9.10;;;;;;;;;;5129223;27;20056;-71
2022/09/23 04:34:36;;;;;;;10.70;8.95;;;;;;;;;;5130751;27;20093;-70
2022/09/23 04:37:03;;;;;;;11.40;8.75;;;;;;;;;;5137087;27;20055;-71
2022/09/23 04:39:29;;;;;;;11.13;8.45;;;;;;;;;;5132572;27;20542;-70
2022/09/23 04:41:55;;;;;;;12.20;8.90;;;;;;;;;;5132019;27;20055;-71
2022/09/23 04:44:21;;;;;;;15.63;8.70;;;;;;;;;;5134013;27;20056;-70
2022/09/23 04:46:48;;;;;;;10.60;8.38;;;;;;;;;;5133955;27;20104;-71
2022/09/23 04:49:15;;;;;;;14.35;8.52;;;;;;;;;;5133093;27;20052;-71
2022/09/23 04:51:42;;;;;;;12.90;9.45;;;;;;;;;;5135150;27;20055;-71
2022/09/23 04:54:10;;;;;;;10.73;9.23;;;;;;;;;;5132070;27;20107;-71
2022/09/23 04:56:38;;;;;;;10.95;8.82;;;;;;;;;;5134258;27;20972;-70
2022/09/23 04:59:05;;;;;;;9.43;8.45;;;;;;;;;;5132481;27;20063;-71
2022/09/23 05:01:33;;;;;;;13.25;8.80;;;;;;;;;;5130007;27;20056;-71
2022/09/23 05:04:12;;;;;;;9.80;8.68;;;;;;;;;;5134483;27;20082;-70
2022/09/23 05:06:39;;;;;;;11.27;8.43;;;;;;;;;;5131240;27;20528;-71
2022/09/23 05:09:06;;;;;;;12.57;9.10;;;;;;;;;;5130951;27;20101;-71
2022/09/23 05:11:33;;;;;;;11.82;8.88;;;;;;;;;;5133070;27;20058;-71
2022/09/23 05:13:59;;;;;;;10.00;8.50;;;;;;;;;;5131797;27;20052;-70
2022/09/23 05:16:26;;;;;;;15.18;9.65;;;;;;;;;;5117237;27;20052;-71
2022/09/23 05:18:52;;;;;;;10.50;8.85;;;;;;;;;;5133529;27;20061;-70
2022/09/23 05:21:20;;;;;;;11.48;9.23;;;;;;;;;;5133368;27;20055;-71
2022/09/23 05:23:47;;;;;;;13.40;8.95;;;;;;;;;;5133064;27;20059;-71
2022/09/23 05:26:13;;;;;;;11.82;9.73;;;;;;;;;;5132665;27;20047;-71
2022/09/23 05:28:39;;;;;;;10.88;9.18;;;;;;;;;;5132936;27;20499;-71
2022/09/23 05:31:07;;;;;;;14.18;9.43;;;;;;;;;;5133093;27;20048;-71
2022/09/23 05:33:35;;;;;;;11.65;9.23;;;;;;;;;;5131222;27;20048;-71
2022/09/23 05:36:01;;;;;;;12.60;10.02;;;;;;;;;;5132021;27;20120;-71
2022/09/23 05:38:28;;;;;;;10.57;9.40;;;;;;;;;;5133279;27;20100;-70
2022/09/23 05:40:58;;;;;;;10.52;9.40;;;;;;;;;;5129784;27;20047;-70
2022/09/23 05:43:26;;;;;;;10.48;9.27;;;;;;;;;;5132372;27;20048;-70
2022/09/23 05:46:01;;;;;;;12.35;9.50;;;;;;;;;;5131151;27;20101;-70
2022/09/23 05:48:33;;;;;;;11.88;9.57;;;;;;;;;;5132624;27;20057;-69
2022/09/23 05:51:00;;;;;;;12.35;9.73;;;;;;;;;;5130654;27;20055;-70
2022/09/23 05:53:28;;;;;;;17.70;10.57;;;;;;;;;;5142256;27;20127;-69
2022/09/23 05:55:55;;;;;;;15.05;10.10;;;;;;;;;;5132899;27;20051;-70
2022/09/23 05:58:22;;;;;;;14.25;9.73;;;;;;;;;;5130580;27;20154;-69
2022/09/23 06:00:49;;;;;;;13.90;9.95;;;;;;;;;;5130488;27;20051;-70
2022/09/23 06:03:17;;;;;;;11.20;9.50;;;;;;;;;;5131260;27;20051;-71
2022/09/23 06:05:45;;;;;;;11.20;10.00;;;;;;;;;;5130487;27;20051;-74
2022/09/23 06:08:11;;;;;;;11.68;10.25;;;;;;;;;;5132955;27;20062;-74
2022/09/23 06:10:38;;;;;;;13.07;9.38;;;;;;;;;;5135083;27;20055;-73
2022/09/23 06:13:05;;;;;;;12.27;9.68;;;;;;;;;;5132531;27;20048;-73
2022/09/23 06:15:31;;;;;;;11.82;9.70;;;;;;;;;;5131724;27;20052;-74
2022/09/23 06:17:59;;;;;;;18.27;10.63;;;;;;;;;;5135251;27;20055;-75
2022/09/23 06:20:25;;;;;;;11.98;9.55;;;;;;;;;;5142288;27;20048;-75
2022/09/23 06:22:52;;;;;;;17.15;11.75;;;;;;;;;;5136264;27;20051;-75
2022/09/23 06:25:21;;;;;;;16.38;10.07;;;;;;;;;;5136357;27;20055;-70
2022/09/23 06:27:55;;;;;;;11.63;10.25;;;;;;;;;;5131674;27;20101;-72
2022/09/23 06:30:22;;;;;;;16.40;10.63;;;;;;;;;;5121341;27;20052;-73
2022/09/23 06:32:50;;;;;;;12.32;9.38;;;;;;;;;;5116315;27;20513;-71
2022/09/23 06:35:21;;;;;;;13.13;10.70;;;;;;;;;;5112609;27;20052;-72
2022/09/23 06:37:53;;;;;;;11.68;9.50;;;;;;;;;;5135881;27;20062;-71
2022/09/23 06:40:21;;;;;;;13.40;10.35;;;;;;;;;;5130805;27;20056;-70
2022/09/23 06:42:47;;;;;;;14.48;10.13;;;;;;;;;;5128100;27;20161;-70
2022/09/23 06:45:17;;;;;;;13.10;11.05;;;;;;;;;;5142939;27;20047;-70
2022/09/23 06:47:43;;;;;;;12.82;10.05;;;;;;;;;;5113476;27;20094;-71
2022/09/23 06:50:13;;;;;;;15.40;10.45;;;;;;;;;;5126149;27;20067;-71
2022/09/23 06:52:40;;;;;;;13.77;9.60;;;;;;;;;;5118248;27;20121;-71
2022/09/23 06:55:08;;;;;;;11.38;10.23;;;;;;;;;;5130458;27;20052;-70
2022/09/23 06:57:35;;;;;;;13.98;9.63;;;;;;;;;;5131053;27;20056;-70
2022/09/23 07:00:01;;;;;;;15.38;10.07;;;;;;;;;;5131224;27;20060;-73
2022/09/23 07:02:28;;;;;;;16.10;10.25;;;;;;;;;;5132753;27;20051;-71
2022/09/23 07:04:56;;;;;;;11.55;9.73;;;;;;;;;;5113533;28;20084;-72
2022/09/23 07:07:22;;;;;;;18.10;10.90;;;;;;;;;;5115287;28;20048;-72
2022/09/23 07:09:49;;;;;;;14.20;10.23;;;;;;;;;;5135192;27;20056;-72
2022/09/23 07:12:15;;;;;;;11.35;9.93;;;;;;;;;;5134848;27;20576;-71
2022/09/23 07:14:41;;;;;;;13.57;10.75;;;;;;;;;;5134897;27;20116;-70
2022/09/23 07:17:07;;;;;;;21.27;10.23;;;;;;;;;;5135118;27;20063;-71
2022/09/23 07:19:34;;;;;;;10.40;9.32;;;;;;;;;;5135881;27;20044;-71
2022/09/23 07:22:00;;;;;;;12.23;10.93;;;;;;;;;;5135456;27;20484;-70
2022/09/23 07:24:27;;;;;;;12.23;9.05;;;;;;;;;;5130739;27;20060;-72
2022/09/23 07:26:54;;;;;;;13.65;12.07;;;;;;;;;;5115620;27;20497;-71
2022/09/23 07:29:20;;;;;;;12.25;10.20;;;;;;;;;;5119116;27;20067;-73
2022/09/23 07:31:46;;;;;;;14.60;10.98;;;;;;;;;;5120997;27;20044;-73
2022/09/23 07:34:18;;;;;;;17.77;11.15;;;;;;;;;;5118130;27;20460;-71
2022/09/23 07:36:44;;;;;;;13.25;10.93;;;;;;;;;;5135005;27;20100;-71
2022/09/23 07:39:11;;;;;;;12.57;10.27;;;;;;;;;;5133783;27;20055;-71
2022/09/23 07:41:37;;;;;;;20.45;10.77;;;;;;;;;;5149525;27;20062;-71
2022/09/23 07:44:05;;;;;;;12.35;10.32;;;;;;;;;;5155882;27;20059;-71
2022/09/23 07:46:32;;;;;;;14.27;10.93;;;;;;;;;;5155617;27;20047;-74
2022/09/23 07:48:59;;;;;;;14.57;11.13;;;;;;;;;;5143456;27;20493;-71
2022/09/23 07:51:26;;;;;;;13.48;10.38;;;;;;;;;;5168283;27;20055;-71
2022/09/23 07:54:00;;;;;;;17.67;10.07;;;;;;;;;;5151244;27;20051;-73
2022/09/23 07:56:27;;;;;;;12.43;10.15;;;;;;;;;;5144123;27;20051;-72
2022/09/23 07:59:00;;;;;;;13.38;10.68;;;;;;;;;;5134084;27;20070;-73
2022/09/23 08:01:31;;;;;;;16.67;10.43;;;;;;;;;;5134927;27;20051;-70
2022/09/23 08:03:59;;;;;;;12.90;10.73;;;;;;;;;;5133324;27;20048;-70
2022/09/23 08:06:25;;;;;;;13.15;10.60;;;;;;;;;;5133267;27;20051;-71
2022/09/23 08:08:51;;;;;;;14.00;10.85;;;;;;;;;;5133794;27;20097;-72
2022/09/23 08:11:28;;;;;;;13.52;10.30;;;;;;;;;;5134615;27;20052;-70
2022/09/23 08:13:54;;;;;;;14.65;10.95;;;;;;;;;;5134509;27;20052;-70
2022/09/23 08:16:21;;;;;;;10.88;9.65;;;;;;;;;;5133693;27;20063;-70
2022/09/23 08:18:47;;;;;;;14.38;10.10;;;;;;;;;;5131633;27;20126;-70
2022/09/23 08:21:17;;;;;;;11.23;10.00;;;;;;;;;;5133747;27;20052;-71
2022/09/23 08:23:43;;;;;;;13.18;9.90;;;;;;;;;;5133579;27;20393;-70
2022/09/23 08:26:10;;;;;;;10.00;8.70;;;;;;;;;;5134099;27;20493;-69
2022/09/23 08:28:46;;;;;;;17.23;10.05;;;;;;;;;;5134371;27;20093;-70
2022/09/23 08:31:13;;;;;;;13.13;8.77;;;;;;;;;;5133827;27;20573;-70
2022/09/23 08:33:39;;;;;;;10.10;8.25;;;;;;;;;;5134233;27;20166;-70
2022/09/23 08:36:06;;;;;;;11.63;8.32;;;;;;;;;;5134898;27;20051;-69
2022/09/23 08:38:32;;;;;;;12.18;9.18;;;;;;;;;;5133613;27;20043;-69
2022/09/23 08:41:15;;;;;;;9.50;8.23;;;;;;;;;;5131869;27;20056;-69
2022/09/23 08:43:49;;;;;;;9.82;8.55;;;;;;;;;;5141859;27;20062;-69
2022/09/23 08:46:22;;;;;;;13.68;9.48;;;;;;;;;;5133835;27;20055;-71
2022/09/23 08:48:48;;;;;;;15.85;8.40;;;;;;;;;;5133402;27;20051;-70
2022/09/23 08:51:20;;;;;;;9.63;8.63;;;;;;;;;;5133063;27;20112;-70
2022/09/23 08:53:48;;;;;;;10.85;8.95;;;;;;;;;;5132985;27;20056;-70
2022/09/23 08:56:15;;;;;;;8.40;7.50;;;;;;;;;;5134577;27;20051;-73
2022/09/23 08:58:47;;;;;;;10.50;7.95;;;;;;;;;;5133508;27;20052;-73
2022/09/23 09:01:18;;;;;;;11.63;8.10;;;;;;;;;;5133380;27;20055;-71
2022/09/23 09:03:46;;;;;;;11.82;7.65;;;;;;;;;;5132479;27;20091;-71
2022/09/23 09:06:19;;;;;;;9.63;6.88;;;;;;;;;;5133022;27;20562;-74
2022/09/23 09:08:49;;;;;;;8.20;6.13;;;;;;;;;;5133314;27;20055;-75
2022/09/23 09:11:17;;;;;;;7.60;5.72;;;;;;;;;;5133879;27;20052;-74
2022/09/23 09:13:47;;;;;;;11.20;5.57;;;;;;;;;;5133200;27;20496;-75
2022/09/23 09:16:24;;;;;;;10.52;5.43;;;;;;;;;;5132774;27;20104;-71
2022/09/23 09:19:20;;;;;;;8.93;5.28;;;;;;;;;;5133926;27;20497;-72
2022/09/23 09:21:50;;;;;;;9.45;5.32;;;;;;;;;;5131881;27;20551;-73
2022/09/23 09:24:20;;;;;;;13.50;5.57;;;;;;;;;;5132528;27;20051;-73
2022/09/23 09:26:47;;;;;;;7.55;5.40;;;;;;;;;;5131448;27;20056;-73
2022/09/23 09:29:13;;;;;;;11.45;5.40;;;;;;;;;;5133134;27;20056;-71
2022/09/23 09:32:10;;;;;;;12.00;5.07;;;;;;;;;;5130498;27;20109;-71
2022/09/23 09:34:40;;;;;;;6.20;4.93;;;;;;;;;;5131892;27;20058;-73
2022/09/23 09:37:10;;;;;;;8.18;5.25;;;;;;;;;;5131278;27;20094;-72
2022/09/23 09:39:36;;;;;;;9.13;5.00;;;;;;;;;;5127893;27;20129;-72
2022/09/23 09:42:03;;;;;;;6.32;4.65;;;;;;;;;;5115817;27;20048;-74
2022/09/23 09:44:30;;;;;;;7.70;4.60;;;;;;;;;;5132948;27;20117;-73
2022/09/23 09:47:25;;;;;;;10.25;5.45;;;;;;;;;;5131021;27;20051;-73
2022/09/23 09:50:01;;;;;;;7.83;5.63;;;;;;;;;;5117203;27;20051;-71
2022/09/23 09:52:28;;;;;;;6.25;4.57;;;;;;;;;;5133125;27;20060;-71
2022/09/23 09:55:13;;;;;;;8.38;5.57;;;;;;;;;;5133010;27;20515;-73
2022/09/23 09:57:43;;;;;;;9.10;4.30;;;;;;;;;;5132612;27;20116;-71
2022/09/23 10:00:17;;;;;;;10.82;4.90;;;;;;;;;;5132398;27;20498;-75
2022/09/23 10:02:44;;;;;;;6.55;4.60;;;;;;;;;;5125001;27;20051;-74
2022/09/23 10:05:26;;;;;;;7.63;4.28;;;;;;;;;;5132201;27;20475;-74
2022/09/23 10:07:53;;;;;;;6.63;4.68;;;;;;;;;;5131463;27;20048;-74
2022/09/23 10:10:22;;;;;;;11.95;5.07;;;;;;;;;;5116255;27;20055;-74
2022/09/23 10:13:12;;;;;;;10.10;5.28;;;;;;;;;;5133021;27;20051;-74
2022/09/23 10:15:42;;;;;;;13.00;4.55;;;;;;;;;;5132694;27;20417;-74
2022/09/23 10:18:18;;;;;;;9.90;4.40;;;;;;;;;;5132966;27;20493;-74
2022/09/23 10:20:45;;;;;;;5.70;4.60;;;;;;;;;;5131593;27;20055;-73
2022/09/23 10:23:15;;;;;;;6.45;4.20;;;;;;;;;;5123821;27;20101;-74
2022/09/23 10:25:41;;;;;;;4.75;3.97;;;;;;;;;;5130896;27;20051;-74
2022/09/23 10:28:28;;;;;;;4.93;4.00;;;;;;;;;;5132689;27;20509;-73
2022/09/23 10:31:03;;;;;;;15.98;5.30;;;;;;;;;;5132552;27;20108;-73
2022/09/23 10:33:30;;;;;;;7.10;4.80;;;;;;;;;;5132768;27;20109;-74
2022/09/23 10:35:56;;;;;;;4.90;4.20;;;;;;;;;;5133071;27;20043;-73
2022/09/23 10:38:22;;;;;;;9.10;4.90;;;;;;;;;;5134841;27;20548;-74
2022/09/23 10:46:37;;;;;;;10.48;4.25;;;;;;;;;;5131307;27;20515;-72
2022/09/23 10:49:23;;;;;;;8.40;4.60;;;;;;;;;;5142467;27;20162;-71
2022/09/23 10:52:08;;;;;;;6.45;4.03;;;;;;;;;;5116951;27;21017;-72
2022/09/23 10:54:49;;;;;;;10.38;4.78;;;;;;;;;;5147012;27;20541;-72
2022/09/23 10:57:40;;;;;;;6.10;3.92;;;;;;;;;;5115178;28;20059;-72
2022/09/23 11:00:27;;;;;;;7.13;4.60;;;;;;;;;;5123621;27;20604;-72
2022/09/23 11:02:56;;;;;;;6.60;4.82;;;;;;;;;;5133114;27;20052;-72
2022/09/23 11:05:43;;;;;;;5.32;4.35;;;;;;;;;;5133956;27;20058;-72
2022/09/23 11:08:10;;;;;;;9.40;5.15;;;;;;;;;;5133139;27;20051;-72
2022/09/23 11:10:56;;;;;;;5.45;4.72;;;;;;;;;;5132382;27;20060;-73
2022/09/23 11:13:29;;;;;;;6.93;5.20;;;;;;;;;;5125599;27;20579;-72
2022/09/23 11:16:01;;;;;;;9.77;4.85;;;;;;;;;;5127753;27;20052;-71
2022/09/23 11:18:43;;;;;;;7.68;5.38;;;;;;;;;;5132967;27;20048;-71
2022/09/23 11:21:29;;;;;;;6.45;5.10;;;;;;;;;;5130882;27;20534;-70
2022/09/23 11:24:13;;;;;;;7.68;5.32;;;;;;;;;;5120888;27;20491;-70
2022/09/23 11:26:46;;;;;;;7.65;5.40;;;;;;;;;;5116067;27;20048;-70
2022/09/23 11:29:18;;;;;;;8.10;5.57;;;;;;;;;;5116949;27;20055;-70
2022/09/23 11:32:03;;;;;;;11.02;6.45;;;;;;;;;;5132904;27;20081;-70
2022/09/23 11:34:39;;;;;;;8.55;5.85;;;;;;;;;;5124354;27;20056;-70
2022/09/23 11:37:08;;;;;;;9.85;7.30;;;;;;;;;;5130959;27;20059;-70
2022/09/23 11:39:38;;;;;;;11.27;6.07;;;;;;;;;;5133514;27;20052;-72
2022/09/23 11:42:09;;;;;;;12.25;6.25;;;;;;;;;;5133747;27;20101;-72
2022/09/23 11:44:38;;;;;;;12.23;6.38;;;;;;;;;;5132162;27;20056;-71
2022/09/23 11:47:10;;;;;;;11.27;5.40;;;;;;;;;;5114587;27;20051;-73
2022/09/23 11:49:42;;;;;;;7.55;6.00;;;;;;;;;;5114395;27;20052;-72
2022/09/23 11:52:19;;;;;;;8.45;5.88;;;;;;;;;;5130542;27;20052;-72
2022/09/23 11:54:53;;;;;;;7.10;5.30;;;;;;;;;;5134877;27;20055;-69
2022/09/23 11:57:34;;;;;;;6.60;5.07;;;;;;;;;;5135511;27;20066;-69
2022/09/23 12:00:21;;;;;;;7.35;5.30;;;;;;;;;;5132212;27;20066;-69
2022/09/23 12:02:57;;;;;;;6.20;4.95;;;;;;;;;;5132025;27;20105;-69
2022/09/23 12:05:36;;;;;;;7.47;4.75;;;;;;;;;;5131025;27;20056;-69
2022/09/23 12:08:09;;;;;;;9.88;5.10;;;;;;;;;;5133472;27;20146;-69
2022/09/23 12:10:45;;;;;;;11.35;4.90;;;;;;;;;;5133639;27;20074;-69
2022/09/23 12:13:20;;;;;;;6.82;4.70;;;;;;;;;;5130945;27;20055;-69
2022/09/23 12:16:05;;;;;;;11.35;5.00;;;;;;;;;;5131895;27;20938;-68
2022/09/23 12:18:38;;;;;;;5.57;3.85;;;;;;;;;;5134459;27;20120;-69
2022/09/23 12:21:16;;;;;;;4.82;3.92;;;;;;;;;;5132951;27;20124;-71
2022/09/23 12:24:21;;;;;;;5.75;4.05;;;;;;;;;;5133409;27;20121;-70
2022/09/23 12:26:50;;;;;;;4.77;3.80;;;;;;;;;;5132156;27;20117;-71
2022/09/23 12:29:17;;;;;;;6.88;3.88;;;;;;;;;;5133345;27;20529;-71
2022/09/23 12:31:45;;;;;;;6.60;4.07;;;;;;;;;;5130839;27;20522;-72
2022/09/23 12:34:21;;;;;;;5.82;4.10;;;;;;;;;;5131171;27;20434;-70
2022/09/23 12:36:47;;;;;;;11.20;3.83;;;;;;;;;;5132775;27;20104;-70
2022/09/23 12:39:16;;;;;;;7.10;3.97;;;;;;;;;;5133760;27;20047;-71
2022/09/23 12:41:47;;;;;;;5.93;3.72;;;;;;;;;;5133548;27;20055;-71
2022/09/23 12:44:26;;;;;;;5.05;3.65;;;;;;;;;;5132819;27;21001;-72
2022/09/23 12:47:11;;;;;;;10.25;4.93;;;;;;;;;;5133660;27;20055;-70
2022/09/23 12:49:38;;;;;;;5.50;3.83;;;;;;;;;;5120966;27;20063;-70
2022/09/23 12:52:13;;;;;;;4.88;3.97;;;;;;;;;;5132293;27;20063;-71
2022/09/23 12:54:40;;;;;;;6.47;4.25;;;;;;;;;;5132010;27;20055;-70
2022/09/23 12:57:09;;;;;;;7.10;3.72;;;;;;;;;;5130118;27;20043;-70
2022/09/23 12:59:53;;;;;;;7.05;3.72;;;;;;;;;;5130319;27;20497;-69
2022/09/23 13:02:28;;;;;;;6.15;3.50;;;;;;;;;;5133086;27;20056;-71
2022/09/23 13:08:01;;;;;;;9.52;3.85;;;;;;;;;;5123196;27;20060;-69
2022/09/23 13:10:29;;;;;;;9.57;4.10;;;;;;;;;;5136934;27;20553;-69
2022/09/23 13:12:56;;;;;;;6.13;3.75;;;;;;;;;;5119868;27;20114;-70
2022/09/23 13:15:31;;;;;;;5.90;3.45;;;;;;;;;;5123543;27;20117;-70
2022/09/23 13:17:58;;;;;;;;;;;;;;;;;;5133521;27;20047;-71
2022/09/23 13:20:24;;;;;;;;;;;;;;;;;;5132661;27;45183;-72
2022/09/23 13:22:53;;;;;;;;;;;;;;;;;;5132401;27;44586;-73
2022/09/23 13:25:19;;;;;;;;;;;;;;;;;;5131434;27;46191;-72
2022/09/23 13:27:45;;;;;;;;;;;;;;;;;;5131026;27;44012;-72
2022/09/23 13:30:12;;;;;;;;;;;;;;;;;;5132520;27;43667;-72
2022/09/23 13:32:38;;;;;;;;;;;;;;;;;;5132508;27;45092;-73
2022/09/23 13:35:04;;;;;;;;;;;;;;;;;;5123760;27;46462;-71
2022/09/23 13:37:30;;;;;;;;;;;;;;;;;;5131958;27;47458;-71
2022/09/23 13:39:57;;;;;;;;;;;;;;;;;;5132239;27;44035;-71
2022/09/23 13:42:24;;;;;;;;;;;;;;;;;;5132258;27;45416;-72
2022/09/23 13:44:51;;;;;;;;;;;;;;;;;;5132201;27;47292;-72
2022/09/23 13:47:17;;;;;;;;;;;;;;;;;;5131242;27;45400;-72
2022/09/23 13:49:43;;;;;;;;;;;;;;;;;;5130581;27;45288;-71
2022/09/23 13:52:09;;;;;;;;;;;;;;;;;;5127001;27;46240;-71
2022/09/23 13:54:35;;;;;;;;;;;;;;;;;;5130010;27;46759;-71
2022/09/23 13:57:02;;;;;;;;;;;;;;;;;;5130902;27;47140;-71
2022/09/23 13:59:28;;;;;;;;;;;;;;;;;;5126305;27;44003;-71
2022/09/23 14:01:54;;;;;;;;;;;;;;;;;;5131149;27;45692;-71
2022/09/23 14:04:20;;;;;;;;;;;;;;;;;;5137396;27;45852;-73
2022/09/23 14:06:46;;;;;;;;;;;;;;;;;;5129336;27;45066;-74
2022/09/23 14:09:13;;;;;;;;;;;;;;;;;;5133802;27;45649;-72
2022/09/23 14:11:39;;;;;;;;;;;;;;;;;;5135587;27;47212;-72
2022/09/23 14:14:06;;;;;;;;;;;;;;;;;;5133840;27;41222;-72
2022/09/23 14:16:33;;;;;;;;;;;;;;;;;;5137001;27;46967;-72
2022/09/23 14:19:00;;;;;;;;;;;;;;;;;;5137791;27;43544;-72
2022/09/23 14:21:26;;;;;;;;;;;;;;;;;;5134367;27;44456;-73
2022/09/23 14:23:52;;;;;;;;;;;;;;;;;;5135018;27;46133;-72
2022/09/23 14:26:18;;;;;;;;;;;;;;;;;;5134409;27;45071;-73
2022/09/23 14:28:44;;;;;;;;;;;;;;;;;;5137232;27;47974;-71
2022/09/23 14:31:10;;;;;;;;;;;;;;;;;;5134842;27;46061;-73
2022/09/23 14:33:37;;;;;;;;;;;;;;;;;;5133307;27;43559;-73
2022/09/23 14:36:03;;;;;;;;;;;;;;;;;;5135555;27;46692;-73
2022/09/23 14:41:45;;;;;;;;;;;;;;;;;;5131040;27;19915;-68
2022/09/23 14:44:12;;;;;;;;;;;;;;;;;;5128622;27;47213;-71
2022/09/23 14:46:38;;;;;;;;;;;;;;;;;;5134874;27;44015;-72
2022/09/23 14:49:05;;;;;;;;;;;;;;;;;;5134739;27;46666;-72
2022/09/23 14:51:31;;;;;;;;;;;;;;;;;;5135406;27;46038;-71
2022/09/23 14:53:57;;;;;;;;;;;;;;;;;;5141967;27;45210;-71
2022/09/23 14:56:24;;;;;;;;;;;;;;;;;;5133053;27;45864;-72
2022/09/23 14:58:50;;;;;;;;;;;;;;;;;;5133079;27;46744;-71
2022/09/23 15:01:18;;;;;;;;;;;;;;;;;;5133798;27;45521;-69
2022/09/23 15:44:28;;;;;;;;;;;;;;;;;;5082491;28;20381;-60
2022/09/23 15:46:55;;;;;;;106.15;61.30;;;;;;;;;;5066227;28;45978;-60
2022/09/23 15:49:21;;;;;;;19.45;12.23;;;;;;;;;;5069017;28;20492;-60
2022/09/23 15:51:50;;;;;;;31.30;22.27;;;;;;;;;;5068532;28;20061;-60
2022/09/23 15:54:18;;;;;;;15.82;9.15;;;;;;;;;;5068126;28;20049;-60
2022/09/23 15:56:44;;;;;;;39.55;27.02;;;;;;;;;;5066862;28;20053;-60